Time;durP1;ratioP1;P1;durP2;ratioP2;P2;SDS_P1;SDS_P2;PMS_P1;PMS_P2;Temp;Humidity;BMP_temperature;BMP_pressure;BME280_temperature;BME280_humidity;BME280_pressure;Samples;Min_cycle;Max_cycle;Signal;HPM_P1;HPM_P2
2022/12/14 00:01:13;;;;;;;40.90;19.30;;;;;;;;;;4450152;32;19932;-76
2022/12/14 00:03:38;;;;;;;33.45;17.67;;;;;;;;;;4451900;32;20047;-75
2022/12/14 00:06:03;;;;;;;;;;;;;;;;;;4451984;32;20018;-75
2022/12/14 00:08:28;;;;;;;31.05;17.80;;;;;;;;;;4452245;32;19932;-74
2022/12/14 00:10:54;;;;;;;;;;;;;;;;;;4451778;32;20155;-75
2022/12/14 00:13:19;;;;;;;35.35;20.08;;;;;;;;;;4452090;32;20353;-74
2022/12/14 00:15:44;;;;;;;33.92;18.70;;;;;;;;;;4452316;32;20047;-76
2022/12/14 00:18:09;;;;;;;;;;;;;;;;;;4452351;32;20029;-75
2022/12/14 00:20:34;;;;;;;32.13;19.25;;;;;;;;;;4452646;32;19944;-77
2022/12/14 00:23:00;;;;;;;36.88;18.80;;;;;;;;;;4452571;32;20074;-76
2022/12/14 00:25:25;;;;;;;31.48;18.58;;;;;;;;;;4452920;32;20069;-76
2022/12/14 00:27:50;;;;;;;;;;;;;;;;;;4453443;32;20029;-75
2022/12/14 00:30:17;;;;;;;32.90;17.60;;;;;;;;;;4452075;32;19947;-75
2022/12/14 00:32:42;;;;;;;30.95;16.70;;;;;;;;;;4449956;32;20427;-75
2022/12/14 00:35:08;;;;;;;;;;;;;;;;;;4451708;32;20051;-75
2022/12/14 00:37:34;;;;;;;33.72;17.37;;;;;;;;;;4451614;32;19955;-75
2022/12/14 00:39:59;;;;;;;31.37;17.25;;;;;;;;;;4450333;32;20041;-74
2022/12/14 00:42:24;;;;;;;;;;;;;;;;;;4450784;32;20051;-75
2022/12/14 00:44:49;;;;;;;34.84;18.60;;;;;;;;;;4450270;32;19950;-75
2022/12/14 00:47:14;;;;;;;29.85;17.77;;;;;;;;;;4452129;32;20044;-76
2022/12/14 00:49:39;;;;;;;;;;;;;;;;;;4454557;32;20055;-75
2022/12/14 00:52:05;;;;;;;32.83;17.83;;;;;;;;;;4454108;32;19972;-76
2022/12/14 00:54:30;;;;;;;;;;;;;;;;;;4454277;32;20120;-76
2022/12/14 00:56:55;;;;;;;30.70;17.80;;;;;;;;;;4454544;32;19932;-74
2022/12/14 00:59:20;;;;;;;27.30;16.70;;;;;;;;;;4452980;32;20048;-75
2022/12/14 01:01:45;;;;;;;;;;;;;;;;;;4453568;32;20057;-76
2022/12/14 01:04:18;;;;;;;31.90;16.08;;;;;;;;;;4452237;32;19940;-76
2022/12/14 01:06:43;;;;;;;31.92;16.65;;;;;;;;;;4452803;32;20188;-75
2022/12/14 01:09:08;;;;;;;;;;;;;;;;;;4452966;32;20458;-76
2022/12/14 01:11:34;;;;;;;29.72;16.46;;;;;;;;;;4453610;32;20007;-76
2022/12/14 01:13:59;;;;;;;31.55;16.27;;;;;;;;;;4451959;32;20362;-74
2022/12/14 01:16:24;;;;;;;;;;;;;;;;;;4453522;32;20452;-75
2022/12/14 01:18:49;;;;;;;27.00;15.06;;;;;;;;;;4454334;32;19932;-75
2022/12/14 01:21:16;;;;;;;30.83;15.50;;;;;;;;;;4453540;32;20078;-75
2022/12/14 01:23:41;;;;;;;26.30;14.27;;;;;;;;;;4453459;32;20051;-76
2022/12/14 01:26:07;;;;;;;30.55;16.95;;;;;;;;;;4451966;32;20030;-75
2022/12/14 01:28:33;;;;;;;;;;;;;;;;;;4453673;32;20055;-75
2022/12/14 01:31:03;;;;;;;29.37;15.60;;;;;;;;;;4453632;32;20370;-75
2022/12/14 01:33:28;;;;;;;29.12;15.80;;;;;;;;;;4453548;32;20043;-76
2022/12/14 01:35:53;;;;;;;;;;;;;;;;;;4451990;32;20022;-75
2022/12/14 01:38:18;;;;;;;26.27;14.70;;;;;;;;;;4451907;32;19946;-75
2022/12/14 01:40:43;;;;;;;;;;;;;;;;;;4453028;32;20124;-74
2022/12/14 01:43:13;;;;;;;27.13;14.55;;;;;;;;;;4452736;32;19947;-75
2022/12/14 01:45:38;;;;;;;27.83;13.55;;;;;;;;;;4451734;32;20112;-75
2022/12/14 01:48:03;;;;;;;;;;;;;;;;;;4451588;32;20081;-75
2022/12/14 01:50:32;;;;;;;25.67;12.25;;;;;;;;;;4451235;32;19936;-76
2022/12/14 01:53:00;;;;;;;25.45;14.13;;;;;;;;;;4451610;32;20120;-76
2022/12/14 01:55:31;;;;;;;27.25;13.52;;;;;;;;;;4451605;32;20433;-75
2022/12/14 01:58:01;;;;;;;27.65;14.70;;;;;;;;;;4453292;32;20437;-74
2022/12/14 02:00:27;;;;;;;22.05;12.80;;;;;;;;;;4451181;32;20406;-75
2022/12/14 02:03:10;;;;;;;26.85;14.15;;;;;;;;;;4451215;32;20094;-75
2022/12/14 02:05:40;;;;;;;29.15;15.13;;;;;;;;;;4451378;32;20101;-75
2022/12/14 02:08:06;;;;;;;23.30;12.60;;;;;;;;;;4452853;32;20022;-76
2022/12/14 02:10:31;;;;;;;26.02;13.95;;;;;;;;;;4452695;32;20051;-74
2022/12/14 02:12:56;;;;;;;;;;;;;;;;;;4451780;32;20339;-75
2022/12/14 02:15:22;;;;;;;24.23;13.48;;;;;;;;;;4453710;32;20365;-75
2022/12/14 02:17:47;;;;;;;;;;;;;;;;;;4452624;32;20112;-75
2022/12/14 02:20:13;;;;;;;24.64;13.94;;;;;;;;;;4450908;32;19948;-76
2022/12/14 02:22:57;;;;;;;26.23;14.75;;;;;;;;;;4450915;32;20104;-74
2022/12/14 02:25:32;;;;;;;26.05;15.20;;;;;;;;;;4452631;32;20140;-76
2022/12/14 02:28:20;;;;;;;32.47;15.32;;;;;;;;;;4453142;32;20047;-74
2022/12/14 02:30:51;;;;;;;25.83;14.50;;;;;;;;;;4453051;32;20047;-75
2022/12/14 02:33:24;;;;;;;26.83;14.13;;;;;;;;;;4453904;32;20087;-75
2022/12/14 02:35:52;;;;;;;24.67;15.40;;;;;;;;;;4452950;32;20382;-75
2022/12/14 02:38:26;;;;;;;22.17;13.45;;;;;;;;;;4452277;32;20082;-75
2022/12/14 02:41:24;;;;;;;24.48;13.77;;;;;;;;;;4451568;32;20060;-75
2022/12/14 02:43:55;;;;;;;26.00;14.55;;;;;;;;;;4426962;32;20079;-75
2022/12/14 02:46:40;;;;;;;23.35;13.35;;;;;;;;;;4452966;32;20084;-74
2022/12/14 02:49:08;;;;;;;26.92;13.85;;;;;;;;;;4451175;32;20079;-75
2022/12/14 02:51:44;;;;;;;27.50;12.77;;;;;;;;;;4451285;32;20034;-75
2022/12/14 02:54:13;;;;;;;31.90;14.13;;;;;;;;;;4452446;32;20059;-75
2022/12/14 02:56:43;;;;;;;24.87;13.05;;;;;;;;;;4454235;32;20443;-75
2022/12/14 02:59:09;;;;;;;22.60;13.62;;;;;;;;;;4455190;32;20077;-74
2022/12/14 03:01:35;;;;;;;24.45;13.00;;;;;;;;;;4454588;32;20025;-74
2022/12/14 03:04:02;;;;;;;24.83;13.60;;;;;;;;;;4453462;32;20021;-74
2022/12/14 03:06:28;;;;;;;24.92;13.50;;;;;;;;;;4453739;32;20067;-73
2022/12/14 03:09:04;;;;;;;25.98;13.20;;;;;;;;;;4452073;32;20021;-74
2022/12/14 03:11:29;;;;;;;;;;;;;;;;;;4451648;32;20085;-74
2022/12/14 03:14:01;;;;;;;22.15;11.70;;;;;;;;;;4453045;32;19948;-74
2022/12/14 03:16:34;;;;;;;21.75;12.45;;;;;;;;;;4451943;32;20203;-74
2022/12/14 03:19:01;;;;;;;22.02;11.65;;;;;;;;;;4450628;32;20418;-75
2022/12/14 03:21:30;;;;;;;24.60;13.43;;;;;;;;;;4451862;32;20067;-75
2022/12/14 03:23:56;;;;;;;19.90;11.00;;;;;;;;;;4450870;32;20026;-74
2022/12/14 03:26:24;;;;;;;20.42;12.30;;;;;;;;;;4451069;32;20048;-75
2022/12/14 03:28:53;;;;;;;23.33;13.20;;;;;;;;;;4452235;32;20440;-74
2022/12/14 03:31:20;;;;;;;23.92;12.00;;;;;;;;;;4450752;32;20030;-74
2022/12/14 03:33:47;;;;;;;20.67;11.85;;;;;;;;;;4450538;32;20057;-74
2022/12/14 03:36:16;;;;;;;22.23;12.10;;;;;;;;;;4450483;32;20338;-75
2022/12/14 03:38:43;;;;;;;22.67;12.57;;;;;;;;;;4452114;32;20354;-75
2022/12/14 03:41:15;;;;;;;22.90;11.63;;;;;;;;;;4449909;32;20486;-75
2022/12/14 03:43:49;;;;;;;20.67;11.30;;;;;;;;;;4450353;32;20022;-75
2022/12/14 03:46:20;;;;;;;20.12;10.25;;;;;;;;;;4452341;32;20044;-75
2022/12/14 03:48:55;;;;;;;21.98;10.73;;;;;;;;;;4451915;32;20401;-74
2022/12/14 03:51:20;;;;;;;26.55;13.55;;;;;;;;;;4451682;32;20068;-74
2022/12/14 03:54:02;;;;;;;20.77;11.73;;;;;;;;;;4450289;32;20065;-74
2022/12/14 03:56:33;;;;;;;24.12;11.88;;;;;;;;;;4452102;32;20040;-75
2022/12/14 03:59:18;;;;;;;18.85;11.27;;;;;;;;;;4451704;32;20073;-75
2022/12/14 04:01:46;;;;;;;21.90;12.07;;;;;;;;;;4451844;32;20153;-75
2022/12/14 04:04:14;;;;;;;22.10;12.23;;;;;;;;;;4450656;32;20060;-76
2022/12/14 04:06:53;;;;;;;21.48;11.95;;;;;;;;;;4451854;32;20044;-75
2022/12/14 04:09:39;;;;;;;20.85;11.88;;;;;;;;;;4452729;32;20061;-75
2022/12/14 04:20:52;;;;;;;25.95;15.73;;;;;;;;;;4451084;32;20453;-73
2022/12/14 04:26:03;;;;;;;22.90;13.62;;;;;;;;;;4451760;32;20025;-74
2022/12/14 04:26:07;;;;;;;22.27;12.35;;;;;;;;;;4454253;32;20025;-75
2022/12/14 04:31:23;;;;;;;23.45;13.40;;;;;;;;;;4454389;32;20078;-74
2022/12/14 04:33:51;;;;;;;26.98;13.85;;;;;;;;;;4454118;32;20055;-74
2022/12/14 04:36:37;;;;;;;25.77;14.48;;;;;;;;;;4454184;32;20056;-73
2022/12/14 04:39:10;;;;;;;27.37;13.77;;;;;;;;;;4455018;32;20108;-74
2022/12/14 04:41:38;;;;;;;28.77;15.63;;;;;;;;;;4454230;32;20155;-75
2022/12/14 04:44:12;;;;;;;23.73;13.27;;;;;;;;;;4454450;32;20040;-74
2022/12/14 04:46:42;;;;;;;26.30;15.00;;;;;;;;;;4455099;32;20078;-74
2022/12/14 04:49:11;;;;;;;27.42;13.68;;;;;;;;;;4455030;32;20029;-75
2022/12/14 04:51:59;;;;;;;27.08;13.88;;;;;;;;;;4455127;32;20053;-74
2022/12/14 04:54:42;;;;;;;22.92;13.45;;;;;;;;;;4455876;32;20024;-74
2022/12/14 04:57:22;;;;;;;25.50;14.27;;;;;;;;;;4455178;32;20056;-75
2022/12/14 04:59:48;;;;;;;25.98;14.32;;;;;;;;;;4456475;32;20136;-76
2022/12/14 05:02:29;;;;;;;23.38;13.55;;;;;;;;;;4454558;32;20048;-75
2022/12/14 05:05:06;;;;;;;27.10;13.52;;;;;;;;;;4455425;32;20077;-74
2022/12/14 05:07:32;;;;;;;23.65;13.43;;;;;;;;;;4453304;32;20052;-75
2022/12/14 05:10:17;;;;;;;25.33;13.43;;;;;;;;;;4454191;32;20025;-75
2022/12/14 05:12:47;;;;;;;25.62;15.02;;;;;;;;;;4452895;32;20074;-75
2022/12/14 05:15:14;;;;;;;30.27;15.60;;;;;;;;;;4452163;32;20025;-75
2022/12/14 05:17:40;;;;;;;23.65;13.57;;;;;;;;;;4452293;32;20025;-74
2022/12/14 05:20:12;;;;;;;26.33;14.40;;;;;;;;;;4452342;32;20013;-74
2022/12/14 05:22:37;;;;;;;29.50;15.38;;;;;;;;;;4452835;32;20131;-74
2022/12/14 05:25:03;;;;;;;31.77;16.02;;;;;;;;;;4452731;32;20029;-75
2022/12/14 05:27:28;;;;;;;22.58;14.65;;;;;;;;;;4452625;32;20029;-75
2022/12/14 05:29:53;;;;;;;31.20;15.45;;;;;;;;;;4453261;32;20026;-75
2022/12/14 05:32:18;;;;;;;27.40;15.23;;;;;;;;;;4455690;32;20116;-75
2022/12/14 05:34:44;;;;;;;28.42;16.75;;;;;;;;;;4452437;32;20065;-75
2022/12/14 05:37:09;;;;;;;32.55;17.85;;;;;;;;;;4453363;32;20026;-75
2022/12/14 05:39:34;;;;;;;26.75;16.05;;;;;;;;;;4452576;32;20056;-74
2022/12/14 05:42:00;;;;;;;30.12;17.65;;;;;;;;;;4452664;32;20055;-74
2022/12/14 05:44:25;;;;;;;36.22;19.75;;;;;;;;;;4453202;32;20059;-75
2022/12/14 05:46:51;;;;;;;30.08;17.10;;;;;;;;;;4452001;32;20033;-75
2022/12/14 05:49:16;;;;;;;32.45;18.02;;;;;;;;;;4452814;32;20095;-75
2022/12/14 05:51:41;;;;;;;34.65;17.30;;;;;;;;;;4452910;32;20114;-75
2022/12/14 05:54:06;;;;;;;33.78;17.90;;;;;;;;;;4451613;32;20052;-75
2022/12/14 05:56:31;;;;;;;32.83;18.25;;;;;;;;;;4451624;32;20069;-75
2022/12/14 05:58:57;;;;;;;32.05;17.08;;;;;;;;;;4451946;32;20022;-75
2022/12/14 06:01:22;;;;;;;31.10;15.88;;;;;;;;;;4451446;32;20086;-75
2022/12/14 06:03:50;;;;;;;31.20;16.52;;;;;;;;;;4451227;32;20108;-75
2022/12/14 06:06:15;;;;;;;33.88;18.90;;;;;;;;;;4452451;32;20021;-76
2022/12/14 06:08:42;;;;;;;32.42;17.85;;;;;;;;;;4451108;32;20034;-74
2022/12/14 06:11:09;;;;;;;31.77;17.73;;;;;;;;;;4452903;32;20387;-75
2022/12/14 06:13:34;;;;;;;34.90;17.70;;;;;;;;;;4450913;32;20047;-74
2022/12/14 06:16:16;;;;;;;32.63;18.15;;;;;;;;;;4451142;32;20359;-74
2022/12/14 06:18:43;;;;;;;30.45;18.15;;;;;;;;;;4451403;32;20342;-74
2022/12/14 06:21:08;;;;;;;29.50;16.87;;;;;;;;;;4452873;32;20021;-74
2022/12/14 06:23:33;;;;;;;32.90;16.70;;;;;;;;;;4455123;32;20021;-73
2022/12/14 06:25:59;;;;;;;35.10;19.02;;;;;;;;;;4457556;32;20044;-73
2022/12/14 06:28:24;;;;;;;32.60;17.75;;;;;;;;;;4458273;32;20029;-73
2022/12/14 06:30:49;;;;;;;33.40;18.42;;;;;;;;;;4458669;32;20025;-74
2022/12/14 06:33:15;;;;;;;31.58;18.92;;;;;;;;;;4457038;32;20106;-74
2022/12/14 06:35:43;;;;;;;30.62;16.35;;;;;;;;;;4454266;32;20077;-75
2022/12/14 06:38:09;;;;;;;31.80;17.65;;;;;;;;;;4455087;32;20025;-74
2022/12/14 06:40:34;;;;;;;32.65;17.65;;;;;;;;;;4452793;32;20074;-74
2022/12/14 06:42:59;;;;;;;31.05;17.35;;;;;;;;;;4452342;32;20025;-75
2022/12/14 06:45:24;;;;;;;28.38;16.87;;;;;;;;;;4451823;32;20162;-74
2022/12/14 06:47:50;;;;;;;27.90;16.48;;;;;;;;;;4450955;32;20085;-75
2022/12/14 06:50:15;;;;;;;37.42;17.08;;;;;;;;;;4453335;32;20065;-74
2022/12/14 06:52:40;;;;;;;29.63;17.05;;;;;;;;;;4453080;32;20123;-75
2022/12/14 06:55:06;;;;;;;30.70;16.73;;;;;;;;;;4452342;32;20061;-74
2022/12/14 06:57:31;;;;;;;33.60;17.40;;;;;;;;;;4453760;32;20375;-73
2022/12/14 06:59:56;;;;;;;29.25;15.90;;;;;;;;;;4453183;32;20398;-74
2022/12/14 07:02:22;;;;;;;34.28;17.30;;;;;;;;;;4452838;32;20081;-74
2022/12/14 07:04:47;;;;;;;32.42;17.12;;;;;;;;;;4453212;32;20022;-74
2022/12/14 07:07:12;;;;;;;30.52;15.15;;;;;;;;;;4451850;32;20116;-75
2022/12/14 07:09:37;;;;;;;33.47;17.12;;;;;;;;;;4451111;32;20021;-74
2022/12/14 07:12:03;;;;;;;30.83;16.00;;;;;;;;;;4450750;32;20107;-74
2022/12/14 07:14:28;;;;;;;30.60;16.05;;;;;;;;;;4451186;32;20096;-74
2022/12/14 07:16:53;;;;;;;35.72;16.30;;;;;;;;;;4450426;32;20081;-73
2022/12/14 07:19:19;;;;;;;28.40;15.77;;;;;;;;;;4450136;32;20025;-76
2022/12/14 07:21:44;;;;;;;29.50;16.75;;;;;;;;;;4450388;32;20051;-76
2022/12/14 07:24:09;;;;;;;31.60;15.85;;;;;;;;;;4450753;32;20364;-74
2022/12/14 07:26:36;;;;;;;25.50;14.85;;;;;;;;;;4450347;32;20025;-74
2022/12/14 07:29:01;;;;;;;32.13;15.73;;;;;;;;;;4450388;32;20032;-74
2022/12/14 07:31:27;;;;;;;30.98;15.05;;;;;;;;;;4450472;32;20448;-74
2022/12/14 07:33:56;;;;;;;34.42;14.93;;;;;;;;;;4450482;32;20375;-74
2022/12/14 07:36:22;;;;;;;32.25;13.82;;;;;;;;;;4450382;32;20044;-74
2022/12/14 07:38:48;;;;;;;30.10;16.15;;;;;;;;;;4452460;32;20033;-73
2022/12/14 07:41:15;;;;;;;27.25;14.18;;;;;;;;;;4451752;32;20045;-74
2022/12/14 07:43:41;;;;;;;22.62;13.10;;;;;;;;;;4450361;32;20365;-74
2022/12/14 07:46:07;;;;;;;26.10;14.23;;;;;;;;;;4451378;32;20069;-74
2022/12/14 07:48:33;;;;;;;28.35;14.13;;;;;;;;;;4452035;32;20025;-74
2022/12/14 07:51:05;;;;;;;27.17;13.98;;;;;;;;;;4451874;32;20028;-74
2022/12/14 07:53:31;;;;;;;31.83;14.18;;;;;;;;;;4450068;32;20025;-73
2022/12/14 07:56:01;;;;;;;24.83;13.05;;;;;;;;;;4450846;32;20083;-73
2022/12/14 07:58:26;;;;;;;24.40;13.48;;;;;;;;;;4454146;32;20521;-73
2022/12/14 08:00:51;;;;;;;24.17;13.60;;;;;;;;;;4454786;32;20029;-75
2022/12/14 08:03:17;;;;;;;31.50;14.75;;;;;;;;;;4455698;32;20051;-73
2022/12/14 08:05:42;;;;;;;28.77;15.82;;;;;;;;;;4453252;32;20029;-73
2022/12/14 08:08:07;;;;;;;29.05;14.25;;;;;;;;;;4452712;32;20029;-74
2022/12/14 08:10:32;;;;;;;27.37;14.18;;;;;;;;;;4452821;32;20141;-73
2022/12/14 08:12:57;;;;;;;29.42;15.57;;;;;;;;;;4454818;32;20071;-74
2022/12/14 08:15:22;;;;;;;26.98;15.32;;;;;;;;;;4454098;32;20022;-73
2022/12/14 08:17:48;;;;;;;33.50;16.83;;;;;;;;;;4454459;32;20330;-74
2022/12/14 08:20:13;;;;;;;31.70;16.02;;;;;;;;;;4454587;32;20033;-74
2022/12/14 08:22:38;;;;;;;27.90;15.40;;;;;;;;;;4454803;32;20036;-74
2022/12/14 08:25:04;;;;;;;27.70;15.73;;;;;;;;;;4454870;32;20074;-74
2022/12/14 08:27:29;;;;;;;31.48;15.70;;;;;;;;;;4452830;32;20080;-73
2022/12/14 08:29:55;;;;;;;30.27;14.90;;;;;;;;;;4453862;32;20086;-74
2022/12/14 08:32:20;;;;;;;30.25;16.98;;;;;;;;;;4454577;32;20042;-74
2022/12/14 08:34:45;;;;;;;30.05;14.95;;;;;;;;;;4454385;32;20049;-73
2022/12/14 08:37:10;;;;;;;24.90;14.77;;;;;;;;;;4452811;32;20041;-75
2022/12/14 08:39:35;;;;;;;26.52;15.77;;;;;;;;;;4454323;32;20079;-74
2022/12/14 08:42:01;;;;;;;24.95;13.75;;;;;;;;;;4454447;32;20030;-74
2022/12/14 08:44:26;;;;;;;24.55;13.82;;;;;;;;;;4452131;32;20374;-73
2022/12/14 08:46:51;;;;;;;24.37;14.68;;;;;;;;;;4453419;32;20052;-73
2022/12/14 08:49:17;;;;;;;27.42;15.15;;;;;;;;;;4452395;32;20052;-74
2022/12/14 08:51:42;;;;;;;22.77;12.13;;;;;;;;;;4453182;32;20033;-74
2022/12/14 08:54:07;;;;;;;27.95;14.00;;;;;;;;;;4452614;32;20025;-74
2022/12/14 08:56:32;;;;;;;30.70;12.95;;;;;;;;;;4452335;32;20089;-74
2022/12/14 08:58:58;;;;;;;25.23;13.05;;;;;;;;;;4453736;32;20342;-74
2022/12/14 09:01:27;;;;;;;24.50;12.52;;;;;;;;;;4451907;32;20030;-74
2022/12/14 09:03:52;;;;;;;26.33;13.07;;;;;;;;;;4453304;32;20051;-74
2022/12/14 09:06:19;;;;;;;20.80;12.25;;;;;;;;;;4452076;32;20026;-74
2022/12/14 09:08:44;;;;;;;25.30;13.80;;;;;;;;;;4451552;32;20017;-74
2022/12/14 09:11:14;;;;;;;27.25;13.75;;;;;;;;;;4453452;32;20437;-75
2022/12/14 09:13:39;;;;;;;26.48;13.85;;;;;;;;;;4451848;32;20104;-74
2022/12/14 09:16:10;;;;;;;22.98;13.68;;;;;;;;;;4452791;32;20038;-73
2022/12/14 09:18:35;;;;;;;21.83;13.30;;;;;;;;;;4453224;32;20427;-74
2022/12/14 09:21:01;;;;;;;25.10;13.00;;;;;;;;;;4453554;32;20096;-74
2022/12/14 09:23:27;;;;;;;24.33;13.35;;;;;;;;;;4451611;32;20401;-75
2022/12/14 09:26:11;;;;;;;41.00;13.85;;;;;;;;;;4451960;32;20097;-75
2022/12/14 09:28:37;;;;;;;24.45;12.57;;;;;;;;;;4452284;32;20477;-76
2022/12/14 09:31:07;;;;;;;28.30;12.50;;;;;;;;;;4452005;32;20078;-75
2022/12/14 09:33:32;;;;;;;23.33;12.65;;;;;;;;;;4452501;32;20465;-76
2022/12/14 09:36:01;;;;;;;27.50;13.30;;;;;;;;;;4454254;32;20052;-76
2022/12/14 09:38:28;;;;;;;26.92;13.25;;;;;;;;;;4453610;32;20057;-76
2022/12/14 09:40:57;;;;;;;22.30;12.20;;;;;;;;;;4457901;32;20100;-76
2022/12/14 09:43:28;;;;;;;38.13;14.90;;;;;;;;;;4461204;32;20429;-76
2022/12/14 09:45:58;;;;;;;51.50;24.98;;;;;;;;;;4459029;32;20085;-77
2022/12/14 09:48:24;;;;;;;60.72;28.08;;;;;;;;;;4458064;32;20096;-76
2022/12/14 09:50:50;;;;;;;58.25;26.00;;;;;;;;;;4457737;32;20052;-76
2022/12/14 09:53:17;;;;;;;56.45;29.55;;;;;;;;;;4457706;32;20025;-76
2022/12/14 09:55:44;;;;;;;43.22;22.33;;;;;;;;;;4456639;32;20414;-77
2022/12/14 09:58:13;;;;;;;37.05;19.40;;;;;;;;;;4454018;32;20088;-76
2022/12/14 10:00:43;;;;;;;36.97;19.05;;;;;;;;;;4453325;32;20096;-76
2022/12/14 10:03:08;;;;;;;34.50;16.92;;;;;;;;;;4452342;32;20018;-76
2022/12/14 10:05:41;;;;;;;30.37;15.00;;;;;;;;;;4452172;32;20067;-75
2022/12/14 10:08:13;;;;;;;30.58;15.75;;;;;;;;;;4451815;32;20051;-75
2022/12/14 10:10:46;;;;;;;32.85;17.52;;;;;;;;;;4452903;32;20123;-75
2022/12/14 10:13:17;;;;;;;43.00;17.75;;;;;;;;;;4453591;32;20097;-76
2022/12/14 10:16:06;;;;;;;38.80;19.50;;;;;;;;;;4451919;32;20100;-76
2022/12/14 10:18:44;;;;;;;43.60;21.30;;;;;;;;;;4452284;32;20031;-76
2022/12/14 10:21:14;;;;;;;41.95;21.80;;;;;;;;;;4451296;32;20040;-77
2022/12/14 10:23:55;;;;;;;51.42;22.17;;;;;;;;;;4453179;32;20462;-76
2022/12/14 10:26:22;;;;;;;43.67;19.33;;;;;;;;;;4451492;32;20021;-77
2022/12/14 10:28:55;;;;;;;29.83;15.80;;;;;;;;;;4451736;32;20405;-78
2022/12/14 10:31:39;;;;;;;30.85;14.35;;;;;;;;;;4452920;32;20014;-76
2022/12/14 10:34:16;;;;;;;29.12;15.90;;;;;;;;;;4452612;32;20078;-76
2022/12/14 10:36:52;;;;;;;26.98;13.00;;;;;;;;;;4452299;32;20018;-76
2022/12/14 10:39:28;;;;;;;25.62;14.60;;;;;;;;;;4451060;32;20048;-76
2022/12/14 10:42:12;;;;;;;20.30;12.57;;;;;;;;;;4452871;32;20055;-77
2022/12/14 10:45:02;;;;;;;23.38;13.60;;;;;;;;;;4452919;32;20020;-75
2022/12/14 10:47:36;;;;;;;26.00;14.43;;;;;;;;;;4452871;32;20025;-74
2022/12/14 10:50:05;;;;;;;26.05;13.65;;;;;;;;;;4452392;32;20052;-75
2022/12/14 10:52:35;;;;;;;31.33;13.75;;;;;;;;;;4450800;32;20093;-75
2022/12/14 10:55:09;;;;;;;38.25;13.62;;;;;;;;;;4451947;32;20021;-76
2022/12/14 10:57:34;;;;;;;33.22;11.93;;;;;;;;;;4452851;32;20056;-78
2022/12/14 10:59:59;;;;;;;;;;;;;;;;;;4451487;32;20104;-77
2022/12/14 11:02:28;;;;;;;43.50;14.57;;;;;;;;;;4451360;32;20310;-76
2022/12/14 11:04:55;;;;;;;55.65;15.38;;;;;;;;;;4453107;32;20154;-76
2022/12/14 11:07:24;;;;;;;41.35;12.00;;;;;;;;;;4453613;32;20072;-76
2022/12/14 11:09:50;;;;;;;53.45;13.27;;;;;;;;;;4452941;32;20078;-77
2022/12/14 11:12:15;;;;;;;;;;;;;;;;;;4453695;32;20033;-77
2022/12/14 11:15:00;;;;;;;39.88;12.48;;;;;;;;;;4453140;32;20302;-75
2022/12/14 11:17:36;;;;;;;39.55;13.93;;;;;;;;;;4452444;32;20140;-75
2022/12/14 11:20:13;;;;;;;58.45;13.10;;;;;;;;;;4451687;32;20033;-76
2022/12/14 11:22:47;;;;;;;24.77;11.32;;;;;;;;;;4451844;32;20025;-76
2022/12/14 11:25:30;;;;;;;34.13;11.90;;;;;;;;;;4449966;32;20034;-75
2022/12/14 11:27:57;;;;;;;21.23;11.18;;;;;;;;;;4451260;32;20051;-76
2022/12/14 11:30:23;;;;;;;50.58;13.95;;;;;;;;;;4450650;32;20021;-77
2022/12/14 11:32:48;;;;;;;;;;;;;;;;;;4450609;32;20048;-76
2022/12/14 11:35:19;;;;;;;26.73;11.75;;;;;;;;;;4451491;32;19952;-77
2022/12/14 11:37:47;;;;;;;22.37;11.73;;;;;;;;;;4451203;32;20227;-77
2022/12/14 11:40:23;;;;;;;22.48;11.38;;;;;;;;;;4451908;32;20037;-77
2022/12/14 11:42:49;;;;;;;25.10;9.55;;;;;;;;;;4450380;32;20162;-78
2022/12/14 11:45:14;;;;;;;;;;;;;;;;;;4452119;32;20025;-77
2022/12/14 11:47:39;;;;;;;29.83;11.80;;;;;;;;;;4452766;32;19997;-77
2022/12/14 11:50:04;;;;;;;;;;;;;;;;;;4452372;32;20161;-76
2022/12/14 11:52:35;;;;;;;15.15;11.05;;;;;;;;;;4452042;32;19968;-76
2022/12/14 11:55:01;;;;;;;23.12;11.45;;;;;;;;;;4451195;32;20143;-76
2022/12/14 11:57:26;;;;;;;;;;;;;;;;;;4455846;32;20057;-78
2022/12/14 11:59:59;;;;;;;21.73;11.00;;;;;;;;;;4451738;32;19960;-77
2022/12/14 12:02:29;;;;;;;18.87;10.43;;;;;;;;;;4450535;32;20173;-76
2022/12/14 12:05:03;;;;;;;36.45;12.88;;;;;;;;;;4450343;32;20025;-76
2022/12/14 12:07:31;;;;;;;17.87;10.20;;;;;;;;;;4451632;32;20183;-76
2022/12/14 12:10:00;;;;;;;22.23;10.65;;;;;;;;;;4450225;32;20350;-76
2022/12/14 12:12:26;;;;;;;25.25;11.75;;;;;;;;;;4451471;32;20073;-77
2022/12/14 12:14:51;;;;;;;;;;;;;;;;;;4451704;32;20029;-77
2022/12/14 12:17:17;;;;;;;19.58;10.10;;;;;;;;;;4451079;32;19976;-77
2022/12/14 12:19:44;;;;;;;15.43;9.95;;;;;;;;;;4449680;32;20026;-77
2022/12/14 12:22:10;;;;;;;15.23;10.25;;;;;;;;;;4449495;32;20066;-77
2022/12/14 12:24:35;;;;;;;;;;;;;;;;;;4449815;32;20442;-77
2022/12/14 12:27:10;;;;;;;16.80;10.20;;;;;;;;;;4449418;32;19932;-77
2022/12/14 12:29:47;;;;;;;33.78;11.98;;;;;;;;;;4451084;32;20139;-76
2022/12/14 12:32:12;;;;;;;;;;;;;;;;;;4449522;32;20017;-77
2022/12/14 12:34:37;;;;;;;16.83;10.82;;;;;;;;;;4449503;32;19936;-76
2022/12/14 12:37:02;;;;;;;;;;;;;;;;;;4449435;32;20417;-77
2022/12/14 12:39:29;;;;;;;14.63;10.90;;;;;;;;;;4449129;32;19970;-76
2022/12/14 12:42:05;;;;;;;39.50;11.57;;;;;;;;;;4449314;32;20021;-76
2022/12/14 12:44:42;;;;;;;14.48;10.32;;;;;;;;;;4450948;32;20331;-78
2022/12/14 12:47:22;;;;;;;30.73;12.57;;;;;;;;;;4452177;32;20037;-77
2022/12/14 12:49:48;;;;;;;30.10;11.80;;;;;;;;;;4452283;32;20062;-77
2022/12/14 12:52:26;;;;;;;;;;;;;;;;;;4453609;32;20041;-76
2022/12/14 12:55:12;;;;;;;13.80;8.32;;;;;;;;;;4454398;32;19951;-76
2022/12/14 12:57:40;;;;;;;15.82;7.62;;;;;;;;;;4452676;32;20331;-77
2022/12/14 13:00:06;;;;;;;51.70;10.65;;;;;;;;;;4453679;32;20086;-76
2022/12/14 13:02:31;;;;;;;;;;;;;;;;;;4454212;32;20397;-76
2022/12/14 13:04:58;;;;;;;51.37;11.43;;;;;;;;;;4454075;32;19982;-76
2022/12/14 13:07:31;;;;;;;37.70;9.85;;;;;;;;;;4454574;32;20018;-77
2022/12/14 13:09:58;;;;;;;24.55;9.38;;;;;;;;;;4456025;32;20021;-76
2022/12/14 13:12:37;;;;;;;47.20;12.27;;;;;;;;;;4457573;32;20041;-76
2022/12/14 13:15:06;;;;;;;19.12;9.55;;;;;;;;;;4457607;32;20060;-76
2022/12/14 13:17:31;;;;;;;27.80;9.15;;;;;;;;;;4456361;32;20047;-76
2022/12/14 13:19:57;;;;;;;;;;;;;;;;;;4456965;32;20029;-74
2022/12/14 13:22:27;;;;;;;33.95;9.50;;;;;;;;;;4455303;32;19979;-75
2022/12/14 13:24:53;;;;;;;38.95;10.70;;;;;;;;;;4454321;32;20041;-76
2022/12/14 13:27:18;;;;;;;;;;;;;;;;;;4455065;32;20041;-76
2022/12/14 13:29:49;;;;;;;23.77;9.95;;;;;;;;;;4455073;32;19945;-74
2022/12/14 13:32:33;;;;;;;15.82;8.80;;;;;;;;;;4453931;32;20147;-76
2022/12/14 13:35:05;;;;;;;32.33;9.45;;;;;;;;;;4454305;32;20025;-75
2022/12/14 13:37:33;;;;;;;24.75;8.77;;;;;;;;;;4455115;32;20117;-76
2022/12/14 13:39:58;;;;;;;54.45;14.13;;;;;;;;;;4456794;32;20034;-76
2022/12/14 13:42:23;;;;;;;;;;;;;;;;;;4455067;32;20073;-76
2022/12/14 13:44:59;;;;;;;21.75;8.77;;;;;;;;;;4455158;32;20318;-76
2022/12/14 13:47:38;;;;;;;15.00;8.27;;;;;;;;;;4456198;32;20014;-76
2022/12/14 13:50:05;;;;;;;19.15;9.35;;;;;;;;;;4458150;32;20034;-76
2022/12/14 13:52:41;;;;;;;13.73;7.50;;;;;;;;;;4454530;32;20048;-77
2022/12/14 13:55:26;;;;;;;22.58;9.93;;;;;;;;;;4455273;32;20485;-77
2022/12/14 13:57:52;;;;;;;24.52;9.30;;;;;;;;;;4455349;32;20029;-78
2022/12/14 14:00:17;;;;;;;;;;;;;;;;;;4454765;32;20021;-77
2022/12/14 14:02:49;;;;;;;27.90;11.32;;;;;;;;;;4454340;32;19950;-77
2022/12/14 14:05:20;;;;;;;47.58;11.77;;;;;;;;;;4454590;32;20025;-76
2022/12/14 14:07:55;;;;;;;25.45;12.23;;;;;;;;;;4455598;32;20432;-76
2022/12/14 14:10:47;;;;;;;20.58;10.15;;;;;;;;;;4456784;32;20037;-77
2022/12/14 14:13:28;;;;;;;16.30;10.55;;;;;;;;;;4451847;32;20481;-77
2022/12/14 14:15:56;;;;;;;53.00;14.63;;;;;;;;;;4454083;32;20452;-77
2022/12/14 14:18:23;;;;;;;17.55;10.68;;;;;;;;;;4455804;32;20029;-78
2022/12/14 14:20:50;;;;;;;27.48;12.02;;;;;;;;;;4467725;32;20037;-77
2022/12/14 14:23:15;;;;;;;36.35;13.95;;;;;;;;;;4455925;32;20026;-77
2022/12/14 14:25:40;;;;;;;;;;;;;;;;;;4455390;32;20051;-77
2022/12/14 14:28:10;;;;;;;19.10;10.23;;;;;;;;;;4453229;32;19963;-76
2022/12/14 14:30:36;;;;;;;34.90;12.25;;;;;;;;;;4451275;32;20347;-76
2022/12/14 14:33:02;;;;;;;25.67;11.80;;;;;;;;;;4451674;32;20025;-77
2022/12/14 14:35:27;;;;;;;;;;;;;;;;;;4451909;32;20148;-77
2022/12/14 14:37:55;;;;;;;25.42;12.22;;;;;;;;;;4453768;32;19932;-76
2022/12/14 14:40:23;;;;;;;53.72;13.85;;;;;;;;;;4452881;32;20366;-77
2022/12/14 14:42:49;;;;;;;26.95;10.75;;;;;;;;;;4453084;32;20047;-76
2022/12/14 14:45:14;;;;;;;;;;;;;;;;;;4451988;32;20029;-76
2022/12/14 14:47:40;;;;;;;33.92;13.62;;;;;;;;;;4452071;32;20002;-77
2022/12/14 14:50:14;;;;;;;25.95;11.35;;;;;;;;;;4452814;32;20022;-77
2022/12/14 14:52:40;;;;;;;27.77;11.23;;;;;;;;;;4453166;32;20017;-77